Time;durP1;ratioP1;P1;durP2;ratioP2;P2;SDS_P1;SDS_P2;PMS_P1;PMS_P2;Temp;Humidity;BMP_temperature;BMP_pressure;BME280_temperature;BME280_humidity;BME280_pressure;Samples;Min_cycle;Max_cycle;Signal;HPM_P1;HPM_P2
2022/06/13 00:00:00;;;;;;;8.65;4.00;;;;;;;15.74;53.07;101385.31;685622;28;1149;-75
2022/06/13 00:00:25;;;;;;;8.13;4.00;;;;;;;15.76;52.99;101393.25;685285;28;2060;-75
2022/06/13 00:00:46;;;;;;;7.90;4.20;;;;;;;15.73;53.23;101387.94;684226;28;1954;-76
2022/06/13 00:01:15;;;;;;;7.55;4.47;;;;;;;15.70;53.22;101383.50;682677;28;1723;-75
2022/06/13 00:01:38;;;;;;;9.52;4.63;;;;;;;15.73;53.23;101378.28;682451;29;1013;-75
2022/06/13 00:01:58;;;;;;;10.55;4.60;;;;;;;15.70;53.25;101385.25;685084;28;1870;-75
2022/06/13 00:02:19;;;;;;;9.90;4.33;;;;;;;15.68;53.43;101379.06;685156;28;1167;-75
2022/06/13 00:02:39;;;;;;;9.05;4.22;;;;;;;15.67;53.38;101375.53;689303;28;1093;-75
2022/06/13 00:03:00;;;;;;;8.40;4.13;;;;;;;15.66;53.24;101376.41;686114;28;1189;-75
2022/06/13 00:03:21;;;;;;;7.05;4.20;;;;;;;15.70;53.21;101382.63;684809;28;1136;-74
2022/06/13 00:03:42;;;;;;;7.45;4.10;;;;;;;15.63;53.35;101371.97;685437;28;1017;-75
2022/06/13 00:04:04;;;;;;;7.57;4.35;;;;;;;15.63;53.26;101371.97;684728;28;1328;-75
2022/06/13 00:04:25;;;;;;;8.15;4.43;;;;;;;15.63;53.37;101386.91;682390;28;967;-75
2022/06/13 00:04:45;;;;;;;6.63;4.40;;;;;;;15.63;53.29;101379.88;682163;28;1527;-75
2022/06/13 00:05:07;;;;;;;6.32;4.22;;;;;;;15.59;53.55;101375.44;687327;28;1829;-75
2022/06/13 00:05:28;;;;;;;6.55;4.25;;;;;;;15.64;53.43;101383.41;685112;28;1314;-75
2022/06/13 00:05:49;;;;;;;6.60;4.00;;;;;;;15.66;53.56;101386.06;685000;28;1214;-75
2022/06/13 00:06:10;;;;;;;6.30;4.13;;;;;;;15.65;53.41;101384.28;681399;28;2077;-75
2022/06/13 00:06:32;;;;;;;6.20;4.07;;;;;;;15.60;53.35;101381.56;681238;29;1465;-75
2022/06/13 00:06:53;;;;;;;7.72;4.20;;;;;;;15.59;53.54;101379.78;682293;28;1937;-75
2022/06/13 00:07:14;;;;;;;8.25;4.07;;;;;;;15.55;53.52;101373.59;685718;28;1563;-75
2022/06/13 00:07:35;;;;;;;7.93;3.95;;;;;;;15.53;53.50;101369.16;679755;29;1260;-75
2022/06/13 00:07:56;;;;;;;7.70;3.97;;;;;;;15.48;53.45;101362.09;682033;28;1960;-75
2022/06/13 00:08:16;;;;;;;7.83;4.30;;;;;;;15.55;53.65;101370.97;682072;29;1817;-75
2022/06/13 00:08:37;;;;;;;9.70;4.68;;;;;;;15.52;53.81;101372.66;682481;28;1013;-75
2022/06/13 00:08:58;;;;;;;9.27;5.07;;;;;;;15.56;54.21;101372.72;682486;28;1049;-75
2022/06/13 00:09:19;;;;;;;10.35;4.82;;;;;;;15.46;53.91;101358.56;684710;28;1603;-75
2022/06/13 00:09:39;;;;;;;8.73;4.57;;;;;;;15.48;53.94;101367.34;687345;28;1123;-75
2022/06/13 00:10:01;;;;;;;10.90;4.63;;;;;;;15.52;53.84;101375.28;686488;28;1364;-75
2022/06/13 00:10:22;;;;;;;10.35;4.78;;;;;;;15.49;53.85;101370.88;684942;28;1184;-74
2022/06/13 00:10:43;;;;;;;10.18;4.60;;;;;;;15.49;53.77;101373.50;684709;28;1537;-75
2022/06/13 00:11:09;;;;;;;7.18;3.92;;;;;;;15.51;53.96;101374.41;683658;28;1294;-75
2022/06/13 00:11:33;;;;;;;9.95;4.00;;;;;;;15.48;53.95;101375.25;682184;29;1214;-75
2022/06/13 00:11:55;;;;;;;8.15;3.75;;;;;;;15.47;54.11;101365.59;686035;28;1048;-75
2022/06/13 00:12:15;;;;;;;5.22;3.80;;;;;;;15.46;54.03;101373.44;687019;28;1818;-75
2022/06/13 00:12:36;;;;;;;6.30;3.53;;;;;;;15.45;54.03;101380.47;684773;28;846;-75
2022/06/13 00:12:56;;;;;;;8.10;3.90;;;;;;;15.44;54.04;101369.91;682323;29;1136;-75
2022/06/13 00:13:17;;;;;;;8.07;3.90;;;;;;;15.44;54.26;101369.91;681954;28;1627;-75
2022/06/13 00:13:41;;;;;;;10.73;4.30;;;;;;;15.45;54.24;101375.22;682215;28;1960;-75
2022/06/13 00:14:03;;;;;;;10.82;4.20;;;;;;;15.47;54.20;101375.22;678876;29;1348;-75
2022/06/13 00:14:24;;;;;;;10.55;4.30;;;;;;;15.39;54.33;101364.56;679837;29;855;-75
2022/06/13 00:14:45;;;;;;;8.00;4.20;;;;;;;15.38;54.29;101365.44;679840;29;1227;-75
2022/06/13 00:15:07;;;;;;;8.07;4.07;;;;;;;15.44;54.17;101383.06;681521;29;1558;-74
2022/06/13 00:15:27;;;;;;;7.72;3.78;;;;;;;15.39;54.53;101379.44;681833;28;1409;-75
2022/06/13 00:15:48;;;;;;;8.02;4.10;;;;;;;15.35;54.63;101366.25;685113;28;1174;-75
2022/06/13 00:16:10;;;;;;;7.35;4.35;;;;;;;15.32;54.40;101360.06;689443;28;1713;-75
2022/06/13 00:16:31;;;;;;;8.80;4.70;;;;;;;15.33;54.30;101378.50;682505;29;987;-75
2022/06/13 00:16:52;;;;;;;7.88;4.20;;;;;;;15.31;54.54;101364.41;684044;28;1664;-75
2022/06/13 00:17:13;;;;;;;8.27;4.10;;;;;;;15.30;54.36;101373.16;684112;28;1749;-75
2022/06/13 00:17:33;;;;;;;6.57;4.10;;;;;;;15.31;54.47;101372.31;685079;28;1017;-75
2022/06/13 00:17:54;;;;;;;6.60;4.07;;;;;;;15.32;54.49;101375.84;685243;28;1102;-75
2022/06/13 00:18:17;;;;;;;6.00;4.07;;;;;;;15.24;54.70;101366.94;684747;28;1801;-75
2022/06/13 00:18:38;;;;;;;7.60;4.38;;;;;;;15.24;54.72;101362.53;685036;28;934;-76
2022/06/13 00:18:59;;;;;;;7.88;4.50;;;;;;;15.25;54.71;101374.84;684832;28;1320;-75
2022/06/13 00:19:20;;;;;;;7.03;4.40;;;;;;;15.27;54.67;101380.13;682168;28;1267;-75
2022/06/13 00:19:41;;;;;;;8.80;4.20;;;;;;;15.24;54.71;101373.06;679325;28;1358;-75
2022/06/13 00:20:05;;;;;;;9.60;4.28;;;;;;;15.31;55.03;101389.84;679376;29;1399;-75
2022/06/13 00:20:25;;;;;;;9.10;4.20;;;;;;;15.27;55.03;101385.38;679664;29;995;-75
2022/06/13 00:20:46;;;;;;;6.95;4.10;;;;;;;15.23;55.03;101376.53;682428;28;808;-75
2022/06/13 00:21:07;;;;;;;8.07;4.32;;;;;;;15.21;55.04;101373.00;682079;29;1521;-75
2022/06/13 00:21:32;;;;;;;8.20;4.63;;;;;;;15.25;54.99;101380.13;685052;28;1028;-75
2022/06/13 00:21:53;;;;;;;6.55;4.43;;;;;;;15.20;54.97;101371.22;685112;28;1087;-75
2022/06/13 00:22:14;;;;;;;5.32;4.07;;;;;;;15.21;55.13;101365.13;682187;29;1452;-74
2022/06/13 00:22:35;;;;;;;4.93;3.80;;;;;;;15.24;55.09;101377.44;682200;28;1487;-75
2022/06/13 00:22:55;;;;;;;4.88;4.00;;;;;;;15.19;55.03;101365.06;685579;28;1965;-75
2022/06/13 00:23:16;;;;;;;6.27;4.00;;;;;;;15.25;55.23;101376.59;685736;28;1492;-75
2022/06/13 00:23:37;;;;;;;7.03;4.10;;;;;;;15.22;55.32;101366.88;687744;28;936;-75
2022/06/13 00:24:01;;;;;;;7.15;4.20;;;;;;;15.22;55.20;101369.53;685238;28;1252;-75
2022/06/13 00:24:22;;;;;;;7.65;4.50;;;;;;;15.19;55.10;101369.44;684269;28;1217;-75
2022/06/13 00:24:42;;;;;;;7.70;4.50;;;;;;;15.16;55.03;101358.84;684997;28;1017;-75
2022/06/13 00:25:04;;;;;;;6.45;4.22;;;;;;;15.19;55.23;101372.06;684825;28;1937;-75
2022/06/13 00:25:25;;;;;;;5.40;4.18;;;;;;;15.15;55.24;101362.34;680705;29;836;-75
2022/06/13 00:25:45;;;;;;;5.68;4.22;;;;;;;15.19;55.25;101374.69;685246;28;1191;-75
2022/06/13 00:26:21;;;;;;;7.75;4.40;;;;;;;15.22;55.27;101369.53;687504;28;1794;-75
2022/06/13 00:26:41;;;;;;;10.77;4.75;;;;;;;15.18;55.39;101371.16;684629;28;1577;-75
2022/06/13 00:27:03;;;;;;;9.77;4.70;;;;;;;15.15;55.40;101370.22;679868;29;1410;-75
2022/06/13 00:27:23;;;;;;;8.95;4.80;;;;;;;15.15;55.35;101370.22;684603;28;1319;-75
2022/06/13 00:27:44;;;;;;;7.20;4.40;;;;;;;15.15;55.40;101372.84;682448;29;946;-75
2022/06/13 00:28:05;;;;;;;6.43;4.00;;;;;;;15.11;55.57;101369.28;684184;28;1230;-74
2022/06/13 00:28:25;;;;;;;6.17;3.77;;;;;;;15.12;55.51;101372.81;680208;29;1787;-75
2022/06/13 00:28:48;;;;;;;7.90;4.13;;;;;;;15.11;55.49;101371.91;682714;28;811;-75
2022/06/13 00:29:09;;;;;;;8.90;4.43;;;;;;;15.04;55.52;101365.66;682245;29;1821;-74
2022/06/13 00:29:30;;;;;;;9.30;4.63;;;;;;;15.04;55.67;101365.66;685077;28;1232;-74
2022/06/13 00:29:51;;;;;;;8.95;4.80;;;;;;;15.08;55.63;101369.25;686786;28;1301;-75
2022/06/13 00:30:12;;;;;;;8.75;4.78;;;;;;;15.04;55.83;101360.41;685630;28;1417;-75
2022/06/13 00:30:32;;;;;;;8.30;4.53;;;;;;;15.02;55.71;101361.22;680750;28;1293;-75
2022/06/13 00:30:53;;;;;;;8.03;4.47;;;;;;;15.04;55.98;101368.28;680441;29;1262;-75
2022/06/13 00:31:14;;;;;;;7.13;4.30;;;;;;;15.01;56.07;101368.22;682146;28;1971;-75
2022/06/13 00:31:35;;;;;;;5.97;4.10;;;;;;;14.99;55.94;101359.41;685146;28;997;-75
2022/06/13 00:31:56;;;;;;;5.53;3.85;;;;;;;14.98;56.07;101365.53;683417;28;1041;-75
2022/06/13 00:32:17;;;;;;;6.63;3.78;;;;;;;15.01;55.87;101369.97;681607;28;1505;-75
2022/06/13 00:32:38;;;;;;;6.93;4.13;;;;;;;14.99;55.95;101362.06;676932;29;1314;-75
2022/06/13 00:32:58;;;;;;;7.03;4.35;;;;;;;14.97;55.80;101368.13;678663;29;1038;-75
2022/06/13 00:33:19;;;;;;;6.70;4.50;;;;;;;14.94;56.08;101366.34;679108;29;1632;-75
2022/06/13 00:33:40;;;;;;;7.85;4.50;;;;;;;14.97;55.90;101366.41;679799;29;979;-75
2022/06/13 00:34:00;;;;;;;7.47;4.60;;;;;;;14.92;56.19;101365.41;681207;29;1515;-75
2022/06/13 00:34:21;;;;;;;7.55;4.32;;;;;;;14.93;56.23;101372.44;682660;28;1176;-75
2022/06/13 00:34:43;;;;;;;7.17;4.23;;;;;;;14.91;56.07;101363.66;685798;28;897;-75
2022/06/13 00:35:04;;;;;;;7.03;4.00;;;;;;;14.87;56.14;101361.84;687236;28;1727;-74
2022/06/13 00:35:25;;;;;;;8.63;4.10;;;;;;;14.89;56.18;101362.75;690570;28;833;-75
2022/06/13 00:35:45;;;;;;;8.07;4.10;;;;;;;14.90;56.13;101372.38;685780;28;855;-75
2022/06/13 00:36:06;;;;;;;9.05;4.20;;;;;;;14.88;56.26;101363.59;684371;28;1398;-74
2022/06/13 00:36:27;;;;;;;6.25;4.10;;;;;;;14.83;56.45;101359.97;684990;28;1013;-75
2022/06/13 00:36:47;;;;;;;6.93;4.30;;;;;;;14.89;56.50;101373.25;683816;28;1110;-75
2022/06/13 00:37:08;;;;;;;7.35;4.53;;;;;;;14.84;56.38;101372.25;682220;28;1616;-75
2022/06/13 00:37:30;;;;;;;7.38;4.50;;;;;;;14.84;56.42;101367.00;682470;29;1118;-75
2022/06/13 00:37:51;;;;;;;7.38;4.03;;;;;;;14.75;56.48;101358.09;683011;28;1119;-75
2022/06/13 00:38:13;;;;;;;7.72;4.00;;;;;;;14.75;56.34;101365.97;678396;29;1934;-75
2022/06/13 00:38:34;;;;;;;8.60;4.20;;;;;;;14.77;56.45;101363.38;684856;28;1172;-75
2022/06/13 00:38:55;;;;;;;7.68;4.32;;;;;;;14.74;56.50;101366.81;683271;28;1212;-75
2022/06/13 00:39:18;;;;;;;6.82;4.30;;;;;;;14.70;56.57;101359.75;683949;28;1858;-75
2022/06/13 00:39:39;;;;;;;6.68;4.32;;;;;;;14.71;56.44;101356.28;687230;28;1998;-75
2022/06/13 00:40:00;;;;;;;6.78;4.53;;;;;;;14.71;56.84;101355.38;684584;28;1370;-75
2022/06/13 00:40:22;;;;;;;7.85;4.55;;;;;;;14.70;56.84;101358.84;685628;28;1699;-75
2022/06/13 00:40:43;;;;;;;7.03;4.50;;;;;;;14.74;56.65;101365.97;688614;28;1040;-75
2022/06/13 00:41:11;;;;;;;8.13;4.50;;;;;;;14.71;56.58;101360.63;684953;28;1904;-75
2022/06/13 00:41:51;;;;;;;9.55;4.40;;;;;;;14.74;56.71;101361.56;684288;28;2211;-75
2022/06/13 00:42:19;;;;;;;9.25;4.40;;;;;;;14.78;56.57;101358.16;686402;28;1651;-75
2022/06/13 00:42:41;;;;;;;7.90;4.70;;;;;;;14.76;56.79;101356.34;687615;28;868;-74
2022/06/13 00:43:05;;;;;;;6.40;4.60;;;;;;;14.76;56.72;101356.34;686707;28;1673;-74
2022/06/13 00:43:26;;;;;;;6.20;4.50;;;;;;;14.74;56.72;101364.19;682381;28;1147;-75
2022/06/13 00:43:47;;;;;;;7.97;4.60;;;;;;;14.71;56.77;101356.28;679794;29;1063;-75
2022/06/13 00:44:17;;;;;;;8.23;4.68;;;;;;;14.74;56.98;101366.81;679696;29;950;-75
2022/06/13 00:44:39;;;;;;;9.85;4.88;;;;;;;14.71;56.98;101358.91;677286;29;1046;-75
2022/06/13 00:45:18;;;;;;;9.32;4.63;;;;;;;14.78;57.12;101370.41;681152;29;1108;-75
2022/06/13 00:45:38;;;;;;;10.18;4.75;;;;;;;14.75;57.18;101358.09;679678;29;1031;-75
2022/06/13 00:45:59;;;;;;;9.65;4.55;;;;;;;14.77;57.14;101363.38;680124;28;1142;-75
2022/06/13 00:46:24;;;;;;;8.35;4.30;;;;;;;14.82;57.01;101366.09;679706;29;1185;-75
2022/06/13 00:46:45;;;;;;;7.03;4.18;;;;;;;14.76;56.81;101351.97;683233;28;1643;-75
2022/06/13 00:47:10;;;;;;;7.22;4.20;;;;;;;14.77;56.95;101358.13;682151;28;1852;-75
2022/06/13 00:47:31;;;;;;;8.73;4.47;;;;;;;14.77;56.80;101361.63;681936;29;1042;-75
2022/06/13 00:47:55;;;;;;;11.00;4.80;;;;;;;14.76;56.92;101351.97;682821;29;1127;-75
2022/06/13 00:48:21;;;;;;;11.48;5.20;;;;;;;14.79;56.84;101359.03;681978;28;1761;-75
2022/06/13 00:48:41;;;;;;;10.25;4.80;;;;;;;14.77;56.98;101356.38;682934;28;1016;-75
2022/06/13 00:49:10;;;;;;;10.25;4.90;;;;;;;14.83;56.71;101367.88;682487;28;1609;-75
2022/06/13 00:49:41;;;;;;;7.47;4.65;;;;;;;14.76;56.69;101351.97;679873;28;1034;-75
2022/06/13 00:50:05;;;;;;;8.38;4.90;;;;;;;14.78;56.92;101358.16;681360;28;1424;-75
2022/06/13 00:50:29;;;;;;;8.25;5.00;;;;;;;14.80;56.88;101361.69;684215;28;1438;-75
2022/06/13 00:50:55;;;;;;;7.80;4.78;;;;;;;14.75;56.87;101352.84;683260;28;1119;-74
2022/06/13 00:51:17;;;;;;;9.10;4.97;;;;;;;14.82;56.97;101363.47;683743;28;1806;-75
2022/06/13 00:51:46;;;;;;;9.70;5.10;;;;;;;14.79;56.90;101356.41;685650;28;966;-75
2022/06/13 00:52:34;;;;;;;7.95;5.20;;;;;;;14.77;56.88;101356.38;685959;28;1412;-75
2022/06/13 00:53:01;;;;;;;7.78;4.35;;;;;;;14.75;57.18;101357.22;682703;29;1141;-75
2022/06/13 00:53:26;;;;;;;7.40;4.35;;;;;;;14.73;57.08;101354.56;682610;29;1585;-74
2022/06/13 00:53:47;;;;;;;7.03;4.60;;;;;;;14.78;57.21;101362.53;679991;29;2083;-75
2022/06/13 00:54:08;;;;;;;8.35;4.95;;;;;;;14.76;56.85;101359.00;680266;29;2070;-75
2022/06/13 00:54:40;;;;;;;8.93;5.13;;;;;;;14.74;56.84;101351.06;679720;29;1136;-75
2022/06/13 00:55:01;;;;;;;8.60;4.95;;;;;;;14.72;56.73;101358.03;684538;28;1543;-75
2022/06/13 00:55:46;;;;;;;7.68;4.60;;;;;;;14.77;56.84;101366.88;688038;28;1449;-75
2022/06/13 00:56:14;;;;;;;8.35;4.78;;;;;;;14.71;56.95;101356.28;682613;28;1371;-75
2022/06/13 00:56:36;;;;;;;7.22;4.97;;;;;;;14.70;57.18;101351.88;682708;29;1074;-75
2022/06/13 00:56:57;;;;;;;7.32;5.10;;;;;;;14.76;57.10;101361.63;680111;29;1108;-75
2022/06/13 00:57:23;;;;;;;8.80;5.40;;;;;;;14.68;57.06;101348.31;680946;29;1915;-75
2022/06/13 00:57:44;;;;;;;7.35;5.32;;;;;;;14.72;57.09;101357.13;679976;29;1060;-74
2022/06/13 00:58:05;;;;;;;6.40;4.90;;;;;;;14.62;57.17;101346.44;687002;28;1194;-75
2022/06/13 00:58:29;;;;;;;6.75;5.22;;;;;;;14.74;57.11;101366.81;682771;28;1454;-75
2022/06/13 00:58:55;;;;;;;7.63;5.32;;;;;;;14.68;57.00;101350.94;683137;28;1104;-75
2022/06/13 00:59:20;;;;;;;10.18;5.30;;;;;;;14.71;57.18;101364.16;682694;28;1598;-75
2022/06/13 00:59:42;;;;;;;9.52;5.35;;;;;;;14.67;56.85;101354.41;681390;29;1687;-75
2022/06/13 01:00:08;;;;;;;9.38;5.43;;;;;;;14.68;57.20;101360.56;684094;28;1934;-75
2022/06/13 01:00:30;;;;;;;9.50;5.30;;;;;;;14.59;57.08;101345.50;682834;29;1037;-75
2022/06/13 01:00:55;;;;;;;15.88;5.53;;;;;;;14.71;56.97;101366.78;682662;28;2017;-75
2022/06/13 01:01:16;;;;;;;14.65;5.40;;;;;;;14.65;57.13;101353.50;682764;29;1009;-75
2022/06/13 01:01:38;;;;;;;14.40;5.18;;;;;;;14.62;56.99;101351.69;682065;29;1004;-75
2022/06/13 01:01:59;;;;;;;7.32;4.65;;;;;;;14.63;56.92;101350.84;684390;28;972;-75
2022/06/13 01:02:21;;;;;;;7.32;4.60;;;;;;;14.64;57.09;101354.38;686366;28;1202;-75
2022/06/13 01:02:46;;;;;;;6.88;4.60;;;;;;;14.64;56.99;101359.63;687431;28;1288;-75
2022/06/13 01:03:06;;;;;;;7.60;4.57;;;;;;;14.60;57.26;101352.53;682567;28;1317;-74
2022/06/13 01:03:28;;;;;;;8.10;4.50;;;;;;;14.66;57.11;101357.91;680190;28;1264;-75
2022/06/13 01:03:50;;;;;;;8.00;4.72;;;;;;;14.60;57.38;101353.41;678222;29;1073;-75
2022/06/13 01:04:11;;;;;;;7.40;4.80;;;;;;;14.61;57.30;101356.91;681733;29;1984;-75
2022/06/13 01:04:32;;;;;;;7.00;4.60;;;;;;;14.57;57.32;101352.47;681602;29;1727;-75
2022/06/13 01:04:53;;;;;;;6.63;4.57;;;;;;;14.64;57.15;101359.63;687978;28;1147;-75
2022/06/13 01:05:20;;;;;;;7.78;4.65;;;;;;;14.58;57.32;101349.88;685446;28;1865;-75
2022/06/13 01:05:45;;;;;;;8.88;4.90;;;;;;;14.60;57.38;101358.66;682446;28;1364;-75
2022/06/13 01:06:06;;;;;;;9.63;5.28;;;;;;;14.58;57.58;101354.25;679855;29;2060;-75
2022/06/13 01:06:30;;;;;;;11.45;5.35;;;;;;;14.60;57.46;101352.53;682512;29;1760;-75
2022/06/13 01:06:51;;;;;;;10.82;5.15;;;;;;;14.57;57.38;101353.34;684864;28;1115;-75
2022/06/13 01:07:13;;;;;;;10.10;4.80;;;;;;;14.57;57.52;101358.59;681587;28;1624;-75
2022/06/13 01:07:35;;;;;;;6.88;4.80;;;;;;;14.52;57.41;101349.75;682656;29;1280;-75
2022/06/13 01:08:00;;;;;;;6.63;4.63;;;;;;;14.53;57.65;101351.50;688120;28;1200;-75
2022/06/13 01:08:25;;;;;;;5.93;4.50;;;;;;;14.50;57.37;101352.34;685024;28;1676;-75
2022/06/13 01:08:47;;;;;;;7.15;5.10;;;;;;;14.50;57.50;101347.09;685436;28;1878;-75
2022/06/13 01:09:10;;;;;;;7.45;5.28;;;;;;;14.48;57.65;101348.78;682667;28;1125;-75
2022/06/13 01:11:42;;;;;;;10.65;5.18;;;;;;;14.45;57.91;101350.47;690870;28;1072;-75
2022/06/13 01:12:05;;;;;;;8.98;5.10;;;;;;;14.43;57.89;101344.31;689936;28;1605;-75
2022/06/13 01:12:28;;;;;;;10.15;4.90;;;;;;;14.49;57.78;101355.81;687813;28;1702;-75
2022/06/13 01:12:49;;;;;;;10.57;5.20;;;;;;;14.44;58.12;101351.31;686909;28;2003;-75
2022/06/13 01:13:12;;;;;;;12.18;5.20;;;;;;;14.46;57.92;101355.75;682459;29;1690;-75
2022/06/13 01:13:41;;;;;;;9.25;4.80;;;;;;;14.46;58.15;101358.38;680248;29;965;-75
2022/06/13 01:14:10;;;;;;;6.20;4.40;;;;;;;14.47;57.91;101354.91;683975;28;1148;-75
2022/06/13 01:14:37;;;;;;;5.90;4.50;;;;;;;14.41;58.09;101349.53;679986;28;1296;-75
2022/06/13 01:15:33;;;;;;;6.75;4.70;;;;;;;14.44;58.06;101357.44;684215;28;1974;-75
2022/06/13 01:16:29;;;;;;;8.45;4.95;;;;;;;14.44;58.19;101356.59;683373;28;1285;-75
2022/06/13 01:17:27;;;;;;;11.15;4.97;;;;;;;14.42;58.24;101353.91;686515;28;1205;-75
2022/06/13 01:18:12;;;;;;;10.13;4.80;;;;;;;14.34;58.33;101351.13;688539;28;1068;-74
2022/06/13 01:19:03;;;;;;;8.68;5.13;;;;;;;14.39;58.35;101359.13;685411;28;991;-75
2022/06/13 01:19:42;;;;;;;8.98;5.00;;;;;;;14.38;58.51;101360.84;685627;28;1952;-75
2022/06/13 01:20:05;;;;;;;8.90;5.00;;;;;;;14.36;58.54;101349.41;687252;28;1197;-75
2022/06/13 01:20:39;;;;;;;6.82;4.97;;;;;;;14.36;58.48;101349.41;685158;28;1559;-75
2022/06/13 01:21:18;;;;;;;6.35;4.72;;;;;;;14.32;58.60;101350.19;679906;29;1976;-75
2022/06/13 01:22:42;;;;;;;6.65;5.00;;;;;;;14.29;58.54;101346.63;681859;28;1154;-75
2022/06/13 01:23:31;;;;;;;7.15;4.95;;;;;;;14.31;58.69;101351.06;683586;28;1756;-75
2022/06/13 01:24:15;;;;;;;7.03;4.75;;;;;;;14.29;58.94;101341.38;680230;29;1092;-74
2022/06/13 01:25:14;;;;;;;9.95;5.13;;;;;;;14.29;58.67;101347.50;677303;29;999;-75
2022/06/13 01:26:08;;;;;;;11.00;5.60;;;;;;;14.25;58.77;101346.56;685314;28;954;-75
2022/06/13 01:27:24;;;;;;;8.45;4.90;;;;;;;14.22;58.98;101343.88;682588;29;834;-75
2022/06/13 01:28:10;;;;;;;8.13;5.28;;;;;;;14.14;59.04;101334.06;679864;29;1021;-75
2022/06/13 01:29:08;;;;;;;9.55;5.40;;;;;;;14.13;59.00;101348.91;680332;28;1036;-75
2022/06/13 01:29:50;;;;;;;7.82;5.35;;;;;;;14.10;59.04;101346.19;688051;28;1384;-75
2022/06/13 01:30:47;;;;;;;5.72;4.85;;;;;;;14.07;59.27;101354.00;690611;28;953;-74
2022/06/13 01:31:14;;;;;;;5.80;4.93;;;;;;;14.04;59.14;101351.28;690856;28;1431;-75
2022/06/13 01:31:44;;;;;;;6.78;4.70;;;;;;;14.03;59.29;101354.75;687989;28;1026;-75
2022/06/13 01:32:34;;;;;;;7.70;4.60;;;;;;;14.00;59.17;101342.44;692695;28;1080;-75
2022/06/13 01:33:05;;;;;;;7.45;4.90;;;;;;;13.99;59.25;101353.81;687200;28;1052;-75
2022/06/13 01:33:58;;;;;;;7.65;4.75;;;;;;;13.97;59.48;101351.13;684405;28;1048;-75
2022/06/13 01:34:21;;;;;;;9.02;5.03;;;;;;;13.94;59.36;101353.69;681121;29;1720;-75
2022/06/13 01:34:57;;;;;;;10.20;5.40;;;;;;;13.96;59.30;101353.75;685121;28;1234;-75
2022/06/13 01:35:43;;;;;;;10.30;5.78;;;;;;;13.92;59.73;101347.53;676844;29;2078;-75
2022/06/13 01:36:25;;;;;;;10.43;5.43;;;;;;;13.97;59.74;101353.75;677470;28;1195;-75
2022/06/13 01:37:11;;;;;;;8.55;4.97;;;;;;;13.92;59.61;101344.91;688301;28;851;-75
2022/06/13 01:38:09;;;;;;;8.45;4.93;;;;;;;14.01;59.38;101354.72;685399;28;1358;-74
2022/06/13 01:38:30;;;;;;;9.85;5.40;;;;;;;14.02;59.57;101358.25;682253;29;1255;-75
2022/06/13 01:39:26;;;;;;;8.17;5.13;;;;;;;14.02;59.80;101359.13;677994;29;1288;-75
2022/06/13 01:39:59;;;;;;;7.93;5.15;;;;;;;13.98;59.40;101352.03;678557;29;1282;-75
2022/06/13 01:40:41;;;;;;;7.47;5.25;;;;;;;14.03;59.73;101354.75;683895;28;1074;-75
2022/06/13 01:41:19;;;;;;;9.13;5.30;;;;;;;13.94;59.42;101342.31;686433;28;1912;-75
2022/06/13 01:42:04;;;;;;;8.07;5.00;;;;;;;14.03;59.83;101360.00;685380;28;989;-75
2022/06/13 01:42:49;;;;;;;8.38;4.80;;;;;;;14.02;59.81;101351.25;682407;28;2401;-74
2022/06/13 01:43:28;;;;;;;8.38;5.10;;;;;;;14.03;59.79;101354.75;687867;28;1716;-75
2022/06/13 01:44:03;;;;;;;9.90;5.10;;;;;;;14.03;59.58;101357.38;688320;28;1134;-76
2022/06/13 01:44:46;;;;;;;9.40;4.82;;;;;;;14.03;59.58;101357.38;693045;28;1969;-75
2022/06/13 01:45:13;;;;;;;8.65;5.25;;;;;;;14.00;59.83;101354.72;689378;28;1031;-75
2022/06/13 01:45:39;;;;;;;7.55;5.43;;;;;;;14.00;59.38;101354.72;687568;28;1119;-75
2022/06/13 01:46:09;;;;;;;8.93;5.20;;;;;;;14.00;59.62;101357.34;686896;28;1452;-75
2022/06/13 01:46:29;;;;;;;7.57;4.70;;;;;;;14.00;59.71;101359.97;686733;28;1812;-75
2022/06/13 01:46:55;;;;;;;6.75;4.65;;;;;;;13.98;59.62;101358.19;681959;28;1025;-75
2022/06/13 01:47:19;;;;;;;6.78;5.00;;;;;;;13.98;59.77;101358.19;682452;29;1703;-75
2022/06/13 01:47:45;;;;;;;7.70;5.10;;;;;;;13.98;59.53;101355.56;682716;29;1120;-75
2022/06/13 01:48:23;;;;;;;7.82;5.30;;;;;;;13.99;59.67;101361.69;682766;28;1081;-74
2022/06/13 01:49:17;;;;;;;8.25;5.18;;;;;;;14.00;59.55;101354.72;688283;28;1144;-75
2022/06/13 01:50:19;;;;;;;8.10;5.38;;;;;;;14.00;59.84;101355.56;687544;28;1064;-75
2022/06/13 01:50:51;;;;;;;9.32;5.43;;;;;;;14.00;59.78;101359.97;692366;28;1631;-75
2022/06/13 01:51:19;;;;;;;9.00;5.30;;;;;;;13.97;59.78;101355.50;688278;28;2002;-75
2022/06/13 01:52:02;;;;;;;8.15;5.00;;;;;;;14.00;59.86;101359.97;693309;28;1606;-75
2022/06/13 01:52:55;;;;;;;8.07;5.00;;;;;;;14.01;59.66;101356.47;689668;28;1669;-74
2022/06/13 01:53:39;;;;;;;8.10;4.70;;;;;;;13.93;59.71;101351.03;682119;28;1923;-74
2022/06/13 01:54:12;;;;;;;11.73;5.38;;;;;;;13.96;59.68;101354.63;683203;28;1090;-75
2022/06/13 01:54:32;;;;;;;8.93;5.18;;;;;;;13.97;59.81;101366.00;686867;28;1528;-75
2022/06/13 01:55:17;;;;;;;8.02;5.00;;;;;;;13.92;59.78;101352.78;688349;28;961;-74
2022/06/13 01:55:46;;;;;;;8.40;5.10;;;;;;;13.90;59.73;101353.59;689987;28;1037;-75
2022/06/13 01:56:12;;;;;;;7.45;5.00;;;;;;;13.92;59.56;101355.41;690378;28;1197;-75
2022/06/13 01:56:46;;;;;;;8.82;5.05;;;;;;;13.92;59.86;101351.88;684116;28;1035;-75
2022/06/13 01:57:43;;;;;;;10.40;5.20;;;;;;;13.94;59.82;101365.91;682618;28;1219;-74
2022/06/13 01:58:32;;;;;;;9.25;4.68;;;;;;;13.95;60.12;101358.09;681984;28;1594;-75
2022/06/13 01:59:31;;;;;;;7.95;5.10;;;;;;;13.97;59.78;101353.75;684819;28;1053;-75
2022/06/13 02:00:03;;;;;;;9.35;5.10;;;;;;;13.93;59.80;101341.44;684154;28;1067;-75
2022/06/13 02:00:30;;;;;;;9.30;5.20;;;;;;;14.00;60.00;101349.47;681622;28;1541;-75
2022/06/13 02:01:00;;;;;;;9.07;5.38;;;;;;;13.95;60.08;101352.84;680411;29;1478;-74
2022/06/13 02:01:46;;;;;;;9.70;5.35;;;;;;;14.01;59.98;101352.09;679740;29;1015;-74
2022/06/13 02:02:35;;;;;;;13.25;5.30;;;;;;;14.04;59.93;101356.53;685313;28;1052;-75
2022/06/13 02:03:50;;;;;;;11.35;5.40;;;;;;;14.05;60.05;101353.06;686500;28;1158;-75
2022/06/13 02:04:20;;;;;;;9.30;5.00;;;;;;;14.04;59.86;101348.66;682247;29;1510;-74
2022/06/13 02:05:02;;;;;;;9.68;5.30;;;;;;;14.05;60.08;101342.56;677507;29;1760;-75
2022/06/13 02:05:31;;;;;;;9.48;5.63;;;;;;;14.03;59.88;101339.91;679047;29;1820;-74
2022/06/13 02:06:00;;;;;;;9.55;5.78;;;;;;;14.09;59.96;101339.16;682039;29;1140;-74
2022/06/13 02:06:37;;;;;;;10.80;5.93;;;;;;;14.11;59.92;101345.38;679454;29;1464;-74
2022/06/13 02:07:06;;;;;;;9.85;5.80;;;;;;;14.12;59.81;101344.50;678195;28;1664;-74
2022/06/13 02:07:36;;;;;;;8.98;5.50;;;;;;;14.17;59.95;101347.22;682343;29;1470;-74
2022/06/13 02:08:08;;;;;;;9.60;5.82;;;;;;;14.13;59.82;101341.03;685165;28;934;-75
2022/06/13 02:08:36;;;;;;;9.00;5.38;;;;;;;14.18;59.58;101349.91;681793;29;1519;-75
2022/06/13 02:09:02;;;;;;;9.27;5.00;;;;;;;14.21;59.63;101343.84;681461;28;2101;-74
2022/06/13 02:09:29;;;;;;;9.75;5.32;;;;;;;14.16;59.41;101335.88;682607;29;873;-75
2022/06/13 02:10:04;;;;;;;10.27;5.35;;;;;;;14.29;59.30;101352.75;681496;28;1119;-75
2022/06/13 02:10:33;;;;;;;8.35;5.28;;;;;;;14.34;59.33;101355.50;680181;29;1971;-75
2022/06/13 02:11:06;;;;;;;8.50;5.00;;;;;;;14.35;59.42;101352.00;682152;28;2010;-75
2022/06/13 02:11:32;;;;;;;8.10;5.20;;;;;;;14.34;59.15;101356.38;683800;28;1816;-75
2022/06/13 02:11:55;;;;;;;8.25;5.50;;;;;;;14.29;59.37;101341.38;679436;29;1203;-75
2022/06/13 02:12:18;;;;;;;9.82;5.75;;;;;;;14.35;59.37;101346.75;680718;29;1944;-75
2022/06/13 02:12:44;;;;;;;8.32;5.60;;;;;;;14.39;59.23;101348.59;682549;28;1322;-75
2022/06/13 02:13:13;;;;;;;6.80;5.00;;;;;;;14.38;59.05;101349.47;681595;29;1306;-75
2022/06/13 02:13:55;;;;;;;6.80;4.90;;;;;;;14.42;58.97;101359.16;682552;28;1064;-75
2022/06/13 02:14:23;;;;;;;8.02;5.22;;;;;;;14.38;58.99;101344.22;678045;29;971;-75
2022/06/13 02:14:49;;;;;;;12.00;5.90;;;;;;;14.31;59.00;101343.19;682629;28;1013;-74
2022/06/13 02:15:17;;;;;;;11.00;5.60;;;;;;;14.37;59.06;101355.53;685219;28;981;-75
2022/06/13 02:15:45;;;;;;;8.27;4.97;;;;;;;14.36;59.03;101344.16;688875;28;1086;-75